createdAt,value
2022-12-11T00:01:21.331Z,95434.69
2022-12-11T00:03:49.056Z,95409.88
2022-12-11T00:06:18.763Z,95415.03
2022-12-11T00:08:46.155Z,95436.00
2022-12-11T00:11:16.874Z,95437.28
2022-12-11T00:13:43.768Z,95434.94
2022-12-11T00:16:10.773Z,95432.66
2022-12-11T00:18:37.597Z,95411.97
2022-12-11T00:21:06.100Z,95417.41
2022-12-11T00:23:34.985Z,95444.28
2022-12-11T00:26:07.022Z,95437.81
2022-12-11T00:28:33.755Z,95414.63
2022-12-11T00:31:04.344Z,95428.03
2022-12-11T00:33:31.022Z,95409.69
2022-12-11T00:35:57.620Z,95402.50
2022-12-11T00:38:24.352Z,95413.56
2022-12-11T00:40:51.085Z,95421.59
2022-12-11T00:43:17.960Z,95448.44
2022-12-11T00:45:47.293Z,95443.81
2022-12-11T00:48:14.113Z,95415.94
2022-12-11T00:50:41.904Z,95442.28
2022-12-11T00:53:08.775Z,95456.22
2022-12-11T00:55:40.404Z,95458.53
2022-12-11T00:58:07.172Z,95464.50
2022-12-11T01:00:34.334Z,95453.13
2022-12-11T01:03:01.149Z,95446.66
2022-12-11T01:05:27.924Z,95423.69
2022-12-11T01:07:54.614Z,95455.97
2022-12-11T01:10:24.070Z,95428.63
2022-12-11T01:12:55.888Z,95478.47
2022-12-11T01:15:26.455Z,95481.56
2022-12-11T01:17:53.720Z,95478.44
2022-12-11T01:20:22.273Z,95479.22
2022-12-11T01:22:51.870Z,95451.34
2022-12-11T01:25:18.496Z,95418.53
2022-12-11T01:27:45.158Z,95452.63
2022-12-11T01:30:13.216Z,95484.66
2022-12-11T01:32:39.876Z,95480.78
2022-12-11T01:35:08.226Z,95481.06
2022-12-11T01:37:35.055Z,95435.81
2022-12-11T01:40:01.877Z,95464.75
2022-12-11T01:42:29.622Z,95446.69
2022-12-11T01:45:24.668Z,95405.34
2022-12-11T01:48:16.314Z,95479.75
2022-12-11T01:50:54.992Z,95381.34
2022-12-11T01:53:27.537Z,95454.19
2022-12-11T01:55:56.251Z,95478.44
2022-12-11T01:58:27.038Z,95462.41
2022-12-11T02:00:54.159Z,95450.06
2022-12-11T02:03:21.525Z,95449.00
2022-12-11T02:05:48.175Z,95484.66
2022-12-11T02:08:15.668Z,95458.56
2022-12-11T02:11:06.066Z,95460.59
2022-12-11T02:13:49.411Z,95400.69
2022-12-11T02:16:43.120Z,95438.41
2022-12-11T02:19:28.955Z,95445.91
2022-12-11T02:21:57.526Z,95471.19
2022-12-11T02:24:36.579Z,95472.25
2022-12-11T02:27:38.139Z,95482.59
2022-12-11T02:30:12.298Z,95480.25
2022-12-11T02:32:56.606Z,95447.47
2022-12-11T02:35:30.427Z,95439.72
2022-12-11T02:38:03.836Z,95418.03
2022-12-11T02:40:35.261Z,95462.94
2022-12-11T02:43:04.825Z,95465.53
2022-12-11T02:45:36.267Z,95470.19
2022-12-11T02:48:05.873Z,95455.47
2022-12-11T02:50:36.183Z,95410.53
2022-12-11T02:53:04.698Z,95447.72
2022-12-11T02:55:33.343Z,95474.31
2022-12-11T02:58:09.263Z,95475.63
2022-12-11T03:00:36.293Z,95417.50
2022-12-11T03:03:03.195Z,95452.88
2022-12-11T03:05:30.535Z,95473.28
2022-12-11T03:07:57.199Z,95423.66
2022-12-11T03:10:24.021Z,95465.78
2022-12-11T03:12:54.126Z,95435.00
2022-12-11T03:15:30.257Z,95460.03
2022-12-11T03:18:13.740Z,95472.72
2022-12-11T03:20:47.513Z,95458.22
2022-12-11T03:23:32.217Z,95469.59
2022-12-11T03:26:05.931Z,95465.22
2022-12-11T03:28:44.414Z,95458.22
2022-12-11T03:31:23.583Z,95443.97
2022-12-11T03:33:57.269Z,95469.56
2022-12-11T03:36:36.400Z,95472.13
2022-12-11T03:39:09.655Z,95412.38
2022-12-11T03:41:38.576Z,95418.38
2022-12-11T03:44:06.307Z,95431.47
2022-12-11T03:46:38.786Z,95479.78
2022-12-11T03:49:17.278Z,95455.28
2022-12-11T03:51:48.204Z,95476.44
2022-12-11T03:54:16.499Z,95470.19
2022-12-11T03:56:46.071Z,95479.78
2022-12-11T03:59:13.195Z,95460.06
2022-12-11T04:01:40.018Z,95473.88
2022-12-11T04:04:06.788Z,95452.97
2022-12-11T04:06:33.514Z,95474.72
2022-12-11T04:09:00.159Z,95484.22
2022-12-11T04:11:35.852Z,95473.13
2022-12-11T04:14:28.089Z,95471.03
2022-12-11T04:16:55.543Z,95476.94
2022-12-11T04:19:41.744Z,95380.50
2022-12-11T04:22:29.743Z,95480.28
2022-12-11T04:24:56.417Z,95458.56
2022-12-11T04:27:42.131Z,95362.13
2022-12-11T04:30:14.350Z,95476.69
2022-12-11T04:32:41.195Z,95480.06
2022-12-11T04:35:09.841Z,95476.44
2022-12-11T04:37:37.406Z,95472.09
2022-12-11T04:40:05.908Z,95463.84
2022-12-11T04:42:32.528Z,95460.03
2022-12-11T04:44:59.120Z,95479.22
2022-12-11T04:47:25.753Z,95454.66
2022-12-11T04:49:52.321Z,95466.53
2022-12-11T04:52:19.031Z,95459.28
2022-12-11T04:54:45.718Z,95446.38
2022-12-11T04:57:12.333Z,95425.94
2022-12-11T04:59:39.061Z,95462.38
2022-12-11T05:02:05.718Z,95425.94
2022-12-11T05:04:34.217Z,95429.78
2022-12-11T05:07:01.713Z,95464.41
2022-12-11T05:09:28.648Z,95414.78
2022-12-11T05:11:55.308Z,95453.81
2022-12-11T05:14:21.996Z,95435.47
2022-12-11T05:16:48.638Z,95422.59
2022-12-11T05:19:15.298Z,95415.16
2022-12-11T05:21:42.042Z,95407.91
2022-12-11T05:24:08.947Z,95450.78
2022-12-11T05:26:35.565Z,95443.78
2022-12-11T05:29:02.177Z,95426.25
2022-12-11T05:31:28.835Z,95416.44
2022-12-11T05:33:55.510Z,95404.81
2022-12-11T05:36:24.937Z,95417.22
2022-12-11T05:38:52.822Z,95443.31
2022-12-11T05:41:24.023Z,95442.25
2022-12-11T05:43:51.086Z,95441.44
2022-12-11T05:46:21.018Z,95439.41
2022-12-11T05:48:50.028Z,95438.13
2022-12-11T05:51:17.286Z,95441.94
2022-12-11T05:53:45.631Z,95421.25
2022-12-11T05:56:15.481Z,95442.69
2022-12-11T05:58:43.409Z,95434.44
2022-12-11T06:01:13.470Z,95439.34
2022-12-11T06:03:40.088Z,95435.44
2022-12-11T06:06:07.426Z,95414.25
2022-12-11T06:08:34.959Z,95441.88
2022-12-11T06:11:01.964Z,95442.19
2022-12-11T06:13:28.581Z,95418.19
2022-12-11T06:15:55.634Z,95435.03
2022-12-11T06:18:22.219Z,95355.75
2022-12-11T06:20:48.812Z,95405.09
2022-12-11T06:23:15.429Z,95368.66
2022-12-11T06:25:42.084Z,95384.41
2022-12-11T06:28:08.923Z,95379.78
2022-12-11T06:30:38.897Z,95404.81
2022-12-11T06:33:07.236Z,95423.13
2022-12-11T06:35:40.102Z,95432.69
2022-12-11T06:38:08.643Z,95427.78
2022-12-11T06:40:35.220Z,95412.31
2022-12-11T06:43:01.797Z,95416.19
2022-12-11T06:45:28.450Z,95428.34
2022-12-11T06:47:55.673Z,95440.19
2022-12-11T06:50:22.293Z,95453.09
2022-12-11T06:52:48.890Z,95416.16
2022-12-11T06:55:15.625Z,95426.78
2022-12-11T06:57:42.301Z,95411.53
2022-12-11T07:00:09.622Z,95451.59
2022-12-11T07:02:36.268Z,95443.56
2022-12-11T07:05:03.163Z,95407.69
2022-12-11T07:07:30.297Z,95435.31
2022-12-11T07:09:56.941Z,95408.69
2022-12-11T07:12:23.703Z,95407.41
2022-12-11T07:14:50.307Z,95432.69
2022-12-11T07:17:16.914Z,95412.03
2022-12-11T07:19:43.546Z,95422.63
2022-12-11T07:22:10.211Z,95445.41
2022-12-11T07:24:36.841Z,95403.25
2022-12-11T07:27:04.670Z,95438.16
2022-12-11T07:29:31.317Z,95435.06
2022-12-11T07:31:58.135Z,95443.81
2022-12-11T07:34:24.978Z,95430.91
2022-12-11T07:36:51.653Z,95408.19
2022-12-11T07:39:18.489Z,95412.31
2022-12-11T07:41:46.948Z,95432.97
2022-12-11T07:44:15.566Z,95378.97
2022-12-11T07:46:42.187Z,95449.50
2022-12-11T07:49:08.799Z,95418.50
2022-12-11T07:51:37.303Z,95450.03
2022-12-11T07:54:13.003Z,95412.31
2022-12-11T07:56:43.661Z,95443.56
2022-12-11T07:59:11.278Z,95434.78
2022-12-11T08:01:39.953Z,95446.66
2022-12-11T08:04:08.724Z,95431.94
2022-12-11T08:06:38.096Z,95451.06
2022-12-11T08:09:07.355Z,95414.38
2022-12-11T08:11:35.510Z,95462.44
2022-12-11T08:14:06.719Z,95461.91
2022-12-11T08:16:33.623Z,95454.16
2022-12-11T08:19:00.478Z,95426.28
2022-12-11T08:21:28.442Z,95439.72
2022-12-11T08:23:56.146Z,95424.47
2022-12-11T08:26:28.811Z,95443.53
2022-12-11T08:28:55.964Z,95466.84
2022-12-11T08:31:23.067Z,95462.16
2022-12-11T08:33:50.612Z,95459.31
2022-12-11T08:36:20.319Z,95461.69
2022-12-11T08:38:47.194Z,95438.16
2022-12-11T08:41:17.310Z,95446.94
2022-12-11T08:43:44.550Z,95436.38
2022-12-11T08:46:12.594Z,95460.66
2022-12-11T08:48:41.115Z,95460.63
2022-12-11T08:51:11.832Z,95458.59
2022-12-11T08:53:39.703Z,95476.41
2022-12-11T08:56:12.273Z,95468.91
2022-12-11T08:58:39.107Z,95480.28
2022-12-11T09:01:08.877Z,95475.59
2022-12-11T09:03:36.507Z,95489.56
2022-12-11T09:06:13.892Z,95456.75
2022-12-11T09:08:41.599Z,95455.44
2022-12-11T09:11:16.478Z,95454.41
2022-12-11T09:13:43.729Z,95491.88
2022-12-11T09:16:16.950Z,95494.47
2022-12-11T09:18:46.232Z,95492.41
2022-12-11T09:21:15.233Z,95482.31
2022-12-11T09:23:41.874Z,95460.38
2022-12-11T09:26:13.416Z,95487.50
2022-12-11T09:28:45.994Z,95396.56
2022-12-11T09:31:26.470Z,95482.34
2022-12-11T09:33:56.516Z,95487.53
2022-12-11T09:36:23.953Z,95466.03
2022-12-11T09:38:50.865Z,95488.03
2022-12-11T09:41:17.539Z,95485.69
2022-12-11T09:44:11.069Z,95436.34
2022-12-11T09:46:40.336Z,95468.38
2022-12-11T09:49:22.620Z,95471.19
2022-12-11T09:51:58.586Z,95479.72
2022-12-11T09:54:26.040Z,95462.16
2022-12-11T09:57:03.456Z,95420.06
2022-12-11T09:59:36.097Z,95467.56
2022-12-11T10:02:18.271Z,95474.28
2022-12-11T10:04:47.870Z,95470.13
2022-12-11T10:07:48.524Z,95466.25
2022-12-11T10:10:38.755Z,95429.06
2022-12-11T10:13:36.120Z,95441.41
2022-12-11T10:16:37.540Z,95456.91
2022-12-11T10:19:05.243Z,95402.44
2022-12-11T10:21:40.117Z,95448.84
2022-12-11T10:24:34.660Z,95438.97
2022-12-11T10:27:14.732Z,95439.47
2022-12-11T10:29:41.325Z,95434.06
2022-12-11T10:32:22.842Z,95434.94
2022-12-11T10:34:59.775Z,95413.59
2022-12-11T10:37:26.839Z,95438.03
2022-12-11T10:39:56.231Z,95402.72
2022-12-11T10:42:23.907Z,95405.28
2022-12-11T10:45:02.379Z,95432.03
2022-12-11T10:47:30.150Z,95438.72
2022-12-11T10:49:59.276Z,95389.84
2022-12-11T10:52:31.644Z,95404.53
2022-12-11T10:55:05.786Z,95422.69
2022-12-11T10:57:35.944Z,95402.72
2022-12-11T11:00:07.495Z,95420.91
2022-12-11T11:02:36.752Z,95399.88
2022-12-11T11:05:34.683Z,95419.03
2022-12-11T11:08:10.752Z,95421.97
2022-12-11T11:10:37.497Z,95395.38
2022-12-11T11:13:04.193Z,95375.78
2022-12-11T11:15:31.304Z,95374.66
2022-12-11T11:18:09.800Z,95344.28
2022-12-11T11:20:36.454Z,95361.38
2022-12-11T11:23:14.205Z,95377.34
2022-12-11T11:25:51.042Z,95355.88
2022-12-11T11:28:36.973Z,95356.91
2022-12-11T11:31:05.909Z,95351.47
2022-12-11T11:33:35.795Z,95369.47
2022-12-11T11:36:08.030Z,95364.09
2022-12-11T11:38:43.475Z,95375.69
2022-12-11T11:41:28.879Z,95359.31
2022-12-11T11:43:59.304Z,95359.81
2022-12-11T11:46:36.604Z,95374.63
2022-12-11T11:49:28.147Z,95375.09
2022-12-11T11:52:01.993Z,95360.84
2022-12-11T11:54:36.633Z,95347.69
2022-12-11T11:57:13.845Z,95337.16
2022-12-11T11:59:47.537Z,95335.84
2022-12-11T12:02:16.830Z,95361.44
2022-12-11T12:04:45.540Z,95355.94
2022-12-11T12:07:30.814Z,95325.84
2022-12-11T12:10:16.221Z,95338.69
2022-12-11T12:12:48.759Z,95338.38
2022-12-11T12:15:15.836Z,95349.22
2022-12-11T12:17:56.007Z,95316.44
2022-12-11T12:20:32.107Z,95336.50
2022-12-11T12:23:36.653Z,95342.94
2022-12-11T12:26:19.072Z,95340.53
2022-12-11T12:29:17.953Z,95345.16
2022-12-11T12:32:05.153Z,95298.34
2022-12-11T12:35:04.381Z,95338.91
2022-12-11T12:37:57.814Z,95341.72
2022-12-11T12:40:27.325Z,95337.50
2022-12-11T12:43:18.699Z,95328.47
2022-12-11T12:46:22.617Z,95331.63
2022-12-11T12:48:52.325Z,95276.75
2022-12-11T12:51:19.521Z,95306.78
2022-12-11T12:53:57.110Z,95303.53
2022-12-11T12:56:26.072Z,95335.97
2022-12-11T12:58:52.979Z,95331.19
2022-12-11T13:01:25.482Z,95335.09
2022-12-11T13:04:05.010Z,95331.91
2022-12-11T13:06:31.856Z,95328.53
2022-12-11T13:09:09.282Z,95332.00
2022-12-11T13:11:36.330Z,95307.47
2022-12-11T13:14:28.792Z,95301.03
2022-12-11T13:17:26.676Z,95335.75
2022-12-11T13:20:15.109Z,95338.00
2022-12-11T13:23:08.134Z,95343.19
2022-12-11T13:25:47.026Z,95337.75
2022-12-11T13:28:33.138Z,95338.75
2022-12-11T13:31:05.557Z,95335.25
2022-12-11T13:33:33.037Z,95339.16
2022-12-11T13:36:13.129Z,95334.91
2022-12-11T13:38:50.789Z,95297.53
2022-12-11T13:41:20.243Z,95335.38
2022-12-11T13:43:49.186Z,95297.06
2022-12-11T13:46:25.104Z,95341.22
2022-12-11T13:49:01.328Z,95322.41
2022-12-11T13:51:31.550Z,95347.38
2022-12-11T13:54:04.310Z,95349.78
2022-12-11T13:56:31.632Z,95303.88
2022-12-11T13:58:59.166Z,95340.00
2022-12-11T14:01:30.875Z,95320.66
2022-12-11T14:04:03.219Z,95345.97
2022-12-11T14:06:31.103Z,95336.94
2022-12-11T14:09:00.560Z,95321.47
2022-12-11T14:11:34.602Z,95321.97
2022-12-11T14:14:04.798Z,95344.19
2022-12-11T14:16:34.995Z,95344.69
2022-12-11T14:19:09.852Z,95327.63
2022-12-11T14:21:37.117Z,95303.41
2022-12-11T14:24:06.537Z,95344.44
2022-12-11T14:26:37.872Z,95348.78
2022-12-11T14:29:05.796Z,95354.72
2022-12-11T14:31:42.473Z,95340.53
2022-12-11T14:34:25.337Z,95262.63
2022-12-11T14:36:53.375Z,95312.94
2022-12-11T14:39:27.857Z,95326.63
2022-12-11T14:42:09.256Z,95332.81
2022-12-11T14:44:52.105Z,95322.75
2022-12-11T14:47:25.963Z,95359.16
2022-12-11T14:50:05.452Z,95333.84
2022-12-11T14:52:47.302Z,95349.06
2022-12-11T14:55:35.435Z,95356.06
2022-12-11T14:58:07.612Z,95359.41
2022-12-11T15:00:36.741Z,95363.53
2022-12-11T15:03:22.583Z,95361.22
2022-12-11T15:05:51.780Z,95359.41
2022-12-11T15:08:25.510Z,95367.94
2022-12-11T15:11:02.356Z,95367.94
2022-12-11T15:13:29.161Z,95331.78
2022-12-11T15:15:57.543Z,95364.03
2022-12-11T15:18:27.196Z,95363.53
2022-12-11T15:20:56.485Z,95354.50
2022-12-11T15:23:23.539Z,95346.25
2022-12-11T15:25:53.248Z,95350.38
2022-12-11T15:28:27.343Z,95370.75
2022-12-11T15:31:04.035Z,95355.03
2022-12-11T15:33:34.344Z,95375.94
2022-12-11T15:36:22.276Z,95372.56
2022-12-11T15:38:48.902Z,95363.28
2022-12-11T15:41:20.940Z,95368.44
2022-12-11T15:43:48.067Z,95323.25
2022-12-11T15:46:14.819Z,95366.63
2022-12-11T15:48:41.485Z,95340.56
2022-12-11T15:51:09.375Z,95325.06
2022-12-11T15:53:36.120Z,95352.44
2022-12-11T15:56:02.919Z,95371.03
2022-12-11T15:58:30.152Z,95345.44
2022-12-11T16:00:57.874Z,95365.34
2022-12-11T16:03:25.331Z,95355.53
2022-12-11T16:05:53.119Z,95327.16
2022-12-11T16:08:22.980Z,95383.66
2022-12-11T16:10:52.766Z,95346.75
2022-12-11T16:13:19.571Z,95367.63
2022-12-11T16:15:47.889Z,95322.19
2022-12-11T16:18:21.703Z,95366.59
2022-12-11T16:20:49.043Z,95390.88
2022-12-11T16:23:17.224Z,95332.81
2022-12-11T16:25:45.539Z,95387.22
2022-12-11T16:28:14.826Z,95357.53
2022-12-11T16:30:43.574Z,95380.03
2022-12-11T16:33:13.238Z,95386.75
2022-12-11T16:35:41.691Z,95381.56
2022-12-11T16:38:09.953Z,95358.34
2022-12-11T16:40:37.380Z,95344.16
2022-12-11T16:43:05.048Z,95392.66
2022-12-11T16:45:32.388Z,95380.78
2022-12-11T16:47:59.090Z,95385.16
2022-12-11T16:50:26.038Z,95365.03
2022-12-11T16:52:52.841Z,95364.50
2022-12-11T16:55:22.272Z,95340.78
2022-12-11T16:57:49.104Z,95334.06
2022-12-11T17:00:16.191Z,95348.25
2022-12-11T17:02:43.101Z,95340.00
2022-12-11T17:05:10.207Z,95360.94
2022-12-11T17:07:37.199Z,95381.56
2022-12-11T17:10:04.604Z,95367.94
2022-12-11T17:12:31.471Z,95347.53
2022-12-11T17:14:58.300Z,95360.94
2022-12-11T17:17:25.429Z,95378.00
2022-12-11T17:19:52.210Z,95333.81
2022-12-11T17:22:19.379Z,95358.38
2022-12-11T17:24:46.065Z,95358.66
2022-12-11T17:27:12.885Z,95317.06
2022-12-11T17:29:39.866Z,95391.91
2022-12-11T17:32:07.043Z,95387.22
2022-12-11T17:34:38.103Z,95379.75
2022-12-11T17:37:05.528Z,95354.22
2022-12-11T17:39:32.579Z,95389.84
2022-12-11T17:41:59.293Z,95367.59
2022-12-11T17:44:29.161Z,95361.16
2022-12-11T17:46:56.356Z,95407.56
2022-12-11T17:49:23.092Z,95369.84
2022-12-11T17:51:49.779Z,95369.59
2022-12-11T17:54:16.377Z,95371.66
2022-12-11T17:56:43.199Z,95404.19
2022-12-11T17:59:09.919Z,95385.06
2022-12-11T18:01:36.922Z,95382.41
2022-12-11T18:04:04.065Z,95342.84
2022-12-11T18:06:31.244Z,95399.91
2022-12-11T18:08:58.063Z,95388.28
2022-12-11T18:11:25.068Z,95388.50
2022-12-11T18:13:52.863Z,95414.13
2022-12-11T18:16:26.879Z,95428.09
2022-12-11T18:18:54.049Z,95428.06
2022-12-11T18:21:42.729Z,95382.13
2022-12-11T18:24:10.101Z,95408.41
2022-12-11T18:26:42.702Z,95387.25
2022-12-11T18:29:09.520Z,95395.69
2022-12-11T18:31:41.903Z,95420.25
2022-12-11T18:34:10.419Z,95403.69
2022-12-11T18:36:37.072Z,95393.63
2022-12-11T18:39:03.883Z,95434.41
2022-12-11T18:41:30.554Z,95391.06
2022-12-11T18:43:59.268Z,95406.09
2022-12-11T18:46:26.134Z,95435.28
2022-12-11T18:48:53.415Z,95402.41
2022-12-11T18:51:24.886Z,95445.63
2022-12-11T18:53:54.527Z,95421.84
2022-12-11T18:56:22.298Z,95440.38
2022-12-11T18:58:50.450Z,95447.06
2022-12-11T19:01:35.270Z,95438.75
2022-12-11T19:04:05.563Z,95411.78
2022-12-11T19:06:35.670Z,95405.66
2022-12-11T19:09:04.593Z,95449.56
2022-12-11T19:11:34.048Z,95447.22
2022-12-11T19:14:03.971Z,95407.38
2022-12-11T19:16:36.109Z,95438.38
2022-12-11T19:19:09.964Z,95439.16
2022-12-11T19:21:38.427Z,95447.19
2022-12-11T19:24:07.154Z,95455.69
2022-12-11T19:26:34.417Z,95445.31
2022-12-11T19:29:01.241Z,95421.31
2022-12-11T19:31:30.042Z,95420.50
2022-12-11T19:33:57.233Z,95415.63
2022-12-11T19:36:26.546Z,95413.84
2022-12-11T19:39:01.416Z,95450.47
2022-12-11T19:41:29.950Z,95443.19
2022-12-11T19:43:58.133Z,95404.63
2022-12-11T19:46:25.383Z,95404.06
2022-12-11T19:48:54.143Z,95435.44
2022-12-11T19:51:35.979Z,95427.94
2022-12-11T19:54:03.255Z,95397.72
2022-12-11T19:56:30.335Z,95444.22
2022-12-11T19:58:57.582Z,95443.44
2022-12-11T20:01:30.966Z,95433.50
2022-12-11T20:04:01.065Z,95438.47
2022-12-11T20:06:29.176Z,95441.03
2022-12-11T20:08:55.874Z,95419.84
2022-12-11T20:11:24.011Z,95373.06
2022-12-11T20:13:51.159Z,95408.25
2022-12-11T20:16:33.339Z,95453.75
2022-12-11T20:19:08.295Z,95404.91
2022-12-11T20:21:35.146Z,95445.75
2022-12-11T20:24:01.806Z,95450.63
2022-12-11T20:26:29.894Z,95413.41
2022-12-11T20:28:57.237Z,95453.56
2022-12-11T20:31:26.271Z,95414.50
2022-12-11T20:33:55.570Z,95415.97
2022-12-11T20:36:23.443Z,95436.41
2022-12-11T20:38:50.806Z,95407.66
2022-12-11T20:41:20.837Z,95393.72
2022-12-11T20:43:53.289Z,95447.75
2022-12-11T20:46:22.308Z,95442.84
2022-12-11T20:48:49.096Z,95438.22
2022-12-11T20:51:23.851Z,95440.81
2022-12-11T20:53:58.306Z,95441.91
2022-12-11T20:56:30.138Z,95443.50
2022-12-11T20:58:58.694Z,95426.44
2022-12-11T21:01:27.348Z,95401.28
2022-12-11T21:03:54.615Z,95406.03
2022-12-11T21:06:26.559Z,95399.81
2022-12-11T21:08:57.501Z,95410.34
2022-12-11T21:11:24.477Z,95392.53
2022-12-11T21:13:52.414Z,95368.78
2022-12-11T21:16:19.999Z,95423.88
2022-12-11T21:18:47.100Z,95389.97
2022-12-11T21:21:15.089Z,95434.75
2022-12-11T21:23:42.087Z,95438.53
2022-12-11T21:26:08.919Z,95433.03
2022-12-11T21:28:35.919Z,95431.75
2022-12-11T21:31:08.092Z,95399.41
2022-12-11T21:33:35.669Z,95436.66
2022-12-11T21:36:03.131Z,95438.19
2022-12-11T21:38:30.287Z,95404.47
2022-12-11T21:40:57.134Z,95404.31
2022-12-11T21:43:24.876Z,95428.84
2022-12-11T21:46:00.961Z,95424.44
2022-12-11T21:48:28.714Z,95430.41
2022-12-11T21:50:56.082Z,95401.13
2022-12-11T21:53:22.820Z,95390.25
2022-12-11T21:55:49.653Z,95433.50
2022-12-11T21:58:16.396Z,95400.13
2022-12-11T22:00:45.504Z,95426.53
2022-12-11T22:03:13.679Z,95426.78
2022-12-11T22:05:40.479Z,95400.19
2022-12-11T22:08:08.297Z,95417.44
2022-12-11T22:10:35.126Z,95400.09
2022-12-11T22:13:01.794Z,95381.22
2022-12-11T22:15:28.544Z,95429.03
2022-12-11T22:17:55.286Z,95405.47
2022-12-11T22:20:21.969Z,95401.09
2022-12-11T22:22:48.673Z,95422.50
2022-12-11T22:25:15.509Z,95426.09
2022-12-11T22:27:42.300Z,95372.31
2022-12-11T22:30:09.836Z,95395.78
2022-12-11T22:32:36.494Z,95427.38
2022-12-11T22:35:03.855Z,95387.25
2022-12-11T22:37:30.704Z,95411.03
2022-12-11T22:39:57.508Z,95396.28
2022-12-11T22:42:24.198Z,95432.72
2022-12-11T22:44:53.647Z,95427.03
2022-12-11T22:47:20.323Z,95397.31
2022-12-11T22:49:46.983Z,95357.31
2022-12-11T22:52:16.373Z,95362.53
2022-12-11T22:54:43.016Z,95410.47
2022-12-11T22:57:14.198Z,95431.03
2022-12-11T22:59:41.306Z,95413.47
2022-12-11T23:02:08.127Z,95392.13
2022-12-11T23:04:35.055Z,95426.22
2022-12-11T23:07:02.063Z,95403.00
2022-12-11T23:09:28.873Z,95431.88
2022-12-11T23:11:58.711Z,95436.59
2022-12-11T23:14:25.698Z,95434.72
2022-12-11T23:16:52.430Z,95433.38
2022-12-11T23:19:25.144Z,95435.13
2022-12-11T23:21:52.803Z,95384.59
2022-12-11T23:24:19.612Z,95416.94
2022-12-11T23:26:48.038Z,95433.06
2022-12-11T23:29:15.300Z,95408.28
2022-12-11T23:31:42.118Z,95441.63
2022-12-11T23:34:08.789Z,95446.66
2022-12-11T23:36:35.590Z,95443.31
2022-12-11T23:39:02.367Z,95410.44
2022-12-11T23:41:29.085Z,95455.13
2022-12-11T23:43:55.775Z,95437.47
2022-12-11T23:46:24.614Z,95427.25
2022-12-11T23:48:52.389Z,95448.88
2022-12-11T23:51:20.873Z,95451.44
2022-12-11T23:53:48.223Z,95456.47
2022-12-11T23:56:27.140Z,95454.72
2022-12-11T23:58:54.654Z,95457.78
